sensor_id;sensor_type;location;lat;lon;timestamp;P1;durP1;ratioP1;P2;durP2;ratioP2
7446;SDS011;3765;47.962;7.952;2022-11-14T00:01:46;9.77;;;4.10;;
7446;SDS011;3765;47.962;7.952;2022-11-14T00:04:14;10.40;;;4.70;;
7446;SDS011;3765;47.962;7.952;2022-11-14T00:06:42;10.17;;;4.13;;
7446;SDS011;3765;47.962;7.952;2022-11-14T00:09:11;10.67;;;4.10;;
7446;SDS011;3765;47.962;7.952;2022-11-14T00:11:39;8.97;;;4.40;;
7446;SDS011;3765;47.962;7.952;2022-11-14T00:14:09;10.57;;;4.57;;
7446;SDS011;3765;47.962;7.952;2022-11-14T00:16:37;9.90;;;4.37;;
7446;SDS011;3765;47.962;7.952;2022-11-14T00:19:05;13.87;;;6.07;;
7446;SDS011;3765;47.962;7.952;2022-11-14T00:21:34;18.47;;;5.50;;
7446;SDS011;3765;47.962;7.952;2022-11-14T00:24:02;9.97;;;3.93;;
7446;SDS011;3765;47.962;7.952;2022-11-14T00:26:30;12.20;;;4.63;;
7446;SDS011;3765;47.962;7.952;2022-11-14T00:28:59;8.20;;;3.43;;
7446;SDS011;3765;47.962;7.952;2022-11-14T00:31:28;9.20;;;3.50;;
7446;SDS011;3765;47.962;7.952;2022-11-14T00:33:56;10.47;;;4.80;;
7446;SDS011;3765;47.962;7.952;2022-11-14T00:36:24;7.70;;;3.50;;
7446;SDS011;3765;47.962;7.952;2022-11-14T00:38:53;7.60;;;3.30;;
7446;SDS011;3765;47.962;7.952;2022-11-14T00:41:21;11.53;;;4.90;;
7446;SDS011;3765;47.962;7.952;2022-11-14T00:43:49;10.80;;;4.33;;
7446;SDS011;3765;47.962;7.952;2022-11-14T00:46:17;10.30;;;4.57;;
7446;SDS011;3765;47.962;7.952;2022-11-14T00:48:47;7.00;;;3.10;;
7446;SDS011;3765;47.962;7.952;2022-11-14T00:51:15;28.83;;;14.33;;
7446;SDS011;3765;47.962;7.952;2022-11-14T00:53:43;12.23;;;5.83;;
7446;SDS011;3765;47.962;7.952;2022-11-14T00:56:12;10.30;;;5.10;;
7446;SDS011;3765;47.962;7.952;2022-11-14T00:58:40;7.30;;;3.13;;
7446;SDS011;3765;47.962;7.952;2022-11-14T01:01:08;12.60;;;5.23;;
7446;SDS011;3765;47.962;7.952;2022-11-14T01:03:36;16.50;;;8.10;;
7446;SDS011;3765;47.962;7.952;2022-11-14T01:06:07;20.53;;;4.70;;
7446;SDS011;3765;47.962;7.952;2022-11-14T01:08:39;8.00;;;3.30;;
7446;SDS011;3765;47.962;7.952;2022-11-14T01:11:08;11.63;;;2.83;;
7446;SDS011;3765;47.962;7.952;2022-11-14T01:13:37;10.00;;;3.90;;
7446;SDS011;3765;47.962;7.952;2022-11-14T01:16:06;11.90;;;3.17;;
7446;SDS011;3765;47.962;7.952;2022-11-14T01:18:34;8.43;;;2.60;;
7446;SDS011;3765;47.962;7.952;2022-11-14T01:21:06;8.40;;;2.97;;
7446;SDS011;3765;47.962;7.952;2022-11-14T01:23:36;10.60;;;4.30;;
7446;SDS011;3765;47.962;7.952;2022-11-14T01:26:06;11.53;;;5.60;;
7446;SDS011;3765;47.962;7.952;2022-11-14T01:28:35;13.10;;;4.93;;
7446;SDS011;3765;47.962;7.952;2022-11-14T01:31:09;13.27;;;4.60;;
7446;SDS011;3765;47.962;7.952;2022-11-14T01:33:38;11.80;;;5.30;;
7446;SDS011;3765;47.962;7.952;2022-11-14T01:36:08;10.50;;;4.47;;
7446;SDS011;3765;47.962;7.952;2022-11-14T01:38:37;13.40;;;5.67;;
7446;SDS011;3765;47.962;7.952;2022-11-14T01:41:05;14.10;;;6.43;;
7446;SDS011;3765;47.962;7.952;2022-11-14T01:43:34;10.80;;;4.37;;
7446;SDS011;3765;47.962;7.952;2022-11-14T01:46:04;11.37;;;5.10;;
7446;SDS011;3765;47.962;7.952;2022-11-14T01:48:36;11.60;;;4.87;;
7446;SDS011;3765;47.962;7.952;2022-11-14T01:51:12;10.20;;;4.90;;
7446;SDS011;3765;47.962;7.952;2022-11-14T01:53:45;10.30;;;3.60;;
7446;SDS011;3765;47.962;7.952;2022-11-14T01:56:16;10.07;;;3.20;;
7446;SDS011;3765;47.962;7.952;2022-11-14T01:58:50;6.80;;;3.00;;
7446;SDS011;3765;47.962;7.952;2022-11-14T02:01:21;10.80;;;4.60;;
7446;SDS011;3765;47.962;7.952;2022-11-14T02:03:52;8.67;;;3.90;;
7446;SDS011;3765;47.962;7.952;2022-11-14T02:06:24;13.83;;;6.13;;
7446;SDS011;3765;47.962;7.952;2022-11-14T02:08:54;11.03;;;5.00;;
7446;SDS011;3765;47.962;7.952;2022-11-14T02:11:24;9.70;;;4.50;;
7446;SDS011;3765;47.962;7.952;2022-11-14T02:13:56;11.20;;;4.60;;
7446;SDS011;3765;47.962;7.952;2022-11-14T02:16:25;8.17;;;3.80;;
7446;SDS011;3765;47.962;7.952;2022-11-14T02:18:54;8.17;;;2.93;;
7446;SDS011;3765;47.962;7.952;2022-11-14T02:21:23;10.70;;;4.60;;
7446;SDS011;3765;47.962;7.952;2022-11-14T02:23:52;11.60;;;4.40;;
7446;SDS011;3765;47.962;7.952;2022-11-14T02:26:20;10.00;;;4.13;;
7446;SDS011;3765;47.962;7.952;2022-11-14T02:28:49;10.20;;;3.87;;
7446;SDS011;3765;47.962;7.952;2022-11-14T02:31:17;8.90;;;3.67;;
7446;SDS011;3765;47.962;7.952;2022-11-14T02:33:45;9.80;;;5.07;;
7446;SDS011;3765;47.962;7.952;2022-11-14T02:36:13;10.80;;;3.93;;
7446;SDS011;3765;47.962;7.952;2022-11-14T02:38:43;8.37;;;3.53;;
7446;SDS011;3765;47.962;7.952;2022-11-14T02:41:11;10.00;;;4.67;;
7446;SDS011;3765;47.962;7.952;2022-11-14T02:43:39;9.80;;;3.70;;
7446;SDS011;3765;47.962;7.952;2022-11-14T02:46:07;7.13;;;3.10;;
7446;SDS011;3765;47.962;7.952;2022-11-14T02:48:36;10.80;;;4.47;;
7446;SDS011;3765;47.962;7.952;2022-11-14T02:51:04;9.17;;;4.07;;
7446;SDS011;3765;47.962;7.952;2022-11-14T02:53:32;11.10;;;3.63;;
7446;SDS011;3765;47.962;7.952;2022-11-14T02:56:02;12.73;;;4.90;;
7446;SDS011;3765;47.962;7.952;2022-11-14T02:58:31;12.07;;;5.57;;
7446;SDS011;3765;47.962;7.952;2022-11-14T03:00:59;14.70;;;6.90;;
7446;SDS011;3765;47.962;7.952;2022-11-14T03:03:47;13.17;;;4.20;;
7446;SDS011;3765;47.962;7.952;2022-11-14T03:06:15;9.60;;;3.93;;
7446;SDS011;3765;47.962;7.952;2022-11-14T03:08:43;7.40;;;2.97;;
7446;SDS011;3765;47.962;7.952;2022-11-14T03:11:13;8.40;;;3.27;;
7446;SDS011;3765;47.962;7.952;2022-11-14T03:13:41;10.60;;;3.80;;
7446;SDS011;3765;47.962;7.952;2022-11-14T03:16:10;8.60;;;3.87;;
7446;SDS011;3765;47.962;7.952;2022-11-14T03:18:39;8.93;;;3.80;;
7446;SDS011;3765;47.962;7.952;2022-11-14T03:21:08;9.27;;;3.53;;
7446;SDS011;3765;47.962;7.952;2022-11-14T03:23:38;10.00;;;4.57;;
7446;SDS011;3765;47.962;7.952;2022-11-14T03:26:07;9.10;;;4.03;;
7446;SDS011;3765;47.962;7.952;2022-11-14T03:28:38;8.87;;;3.30;;
7446;SDS011;3765;47.962;7.952;2022-11-14T03:31:08;9.77;;;3.40;;
7446;SDS011;3765;47.962;7.952;2022-11-14T03:33:38;13.53;;;4.53;;
7446;SDS011;3765;47.962;7.952;2022-11-14T03:36:06;13.70;;;3.00;;
7446;SDS011;3765;47.962;7.952;2022-11-14T03:38:35;10.80;;;4.83;;
7446;SDS011;3765;47.962;7.952;2022-11-14T03:41:03;8.70;;;2.90;;
7446;SDS011;3765;47.962;7.952;2022-11-14T03:43:32;12.30;;;5.40;;
7446;SDS011;3765;47.962;7.952;2022-11-14T03:46:02;8.90;;;3.60;;
7446;SDS011;3765;47.962;7.952;2022-11-14T03:48:31;9.67;;;3.60;;
7446;SDS011;3765;47.962;7.952;2022-11-14T03:50:59;9.37;;;4.40;;
7446;SDS011;3765;47.962;7.952;2022-11-14T03:53:27;10.43;;;2.37;;
7446;SDS011;3765;47.962;7.952;2022-11-14T03:55:55;8.93;;;3.33;;
7446;SDS011;3765;47.962;7.952;2022-11-14T03:58:24;7.40;;;2.70;;
7446;SDS011;3765;47.962;7.952;2022-11-14T04:00:52;7.20;;;2.70;;
7446;SDS011;3765;47.962;7.952;2022-11-14T04:03:26;6.87;;;2.57;;
7446;SDS011;3765;47.962;7.952;2022-11-14T04:05:54;8.00;;;3.50;;
7446;SDS011;3765;47.962;7.952;2022-11-14T04:08:23;7.87;;;3.43;;
7446;SDS011;3765;47.962;7.952;2022-11-14T04:10:51;8.73;;;3.50;;
7446;SDS011;3765;47.962;7.952;2022-11-14T04:13:19;9.17;;;3.60;;
7446;SDS011;3765;47.962;7.952;2022-11-14T04:15:52;10.00;;;3.77;;
7446;SDS011;3765;47.962;7.952;2022-11-14T04:18:22;8.70;;;3.63;;
7446;SDS011;3765;47.962;7.952;2022-11-14T04:20:51;7.33;;;2.80;;
7446;SDS011;3765;47.962;7.952;2022-11-14T04:23:20;11.00;;;3.90;;
7446;SDS011;3765;47.962;7.952;2022-11-14T04:25:48;11.17;;;4.57;;
7446;SDS011;3765;47.962;7.952;2022-11-14T04:28:16;9.07;;;2.93;;
7446;SDS011;3765;47.962;7.952;2022-11-14T04:30:44;7.60;;;3.00;;
7446;SDS011;3765;47.962;7.952;2022-11-14T04:33:12;7.93;;;2.87;;
7446;SDS011;3765;47.962;7.952;2022-11-14T04:35:41;10.80;;;2.80;;
7446;SDS011;3765;47.962;7.952;2022-11-14T04:38:10;10.83;;;3.63;;
7446;SDS011;3765;47.962;7.952;2022-11-14T04:40:38;8.27;;;3.50;;
7446;SDS011;3765;47.962;7.952;2022-11-14T04:43:06;9.43;;;3.10;;
7446;SDS011;3765;47.962;7.952;2022-11-14T04:45:35;9.87;;;3.50;;
7446;SDS011;3765;47.962;7.952;2022-11-14T04:48:03;10.40;;;4.27;;
7446;SDS011;3765;47.962;7.952;2022-11-14T04:50:31;10.30;;;4.23;;
7446;SDS011;3765;47.962;7.952;2022-11-14T04:52:59;18.73;;;3.07;;
7446;SDS011;3765;47.962;7.952;2022-11-14T04:55:29;10.20;;;4.00;;
7446;SDS011;3765;47.962;7.952;2022-11-14T04:57:57;10.60;;;4.40;;
7446;SDS011;3765;47.962;7.952;2022-11-14T05:00:26;7.90;;;3.10;;
7446;SDS011;3765;47.962;7.952;2022-11-14T05:02:54;11.90;;;3.90;;
7446;SDS011;3765;47.962;7.952;2022-11-14T05:05:24;12.10;;;3.50;;
7446;SDS011;3765;47.962;7.952;2022-11-14T05:07:52;9.80;;;4.70;;
7446;SDS011;3765;47.962;7.952;2022-11-14T05:10:21;12.40;;;6.10;;
7446;SDS011;3765;47.962;7.952;2022-11-14T05:12:53;9.77;;;4.20;;
7446;SDS011;3765;47.962;7.952;2022-11-14T05:15:21;8.60;;;3.67;;
7446;SDS011;3765;47.962;7.952;2022-11-14T05:17:49;11.60;;;4.93;;
7446;SDS011;3765;47.962;7.952;2022-11-14T05:20:17;9.97;;;4.23;;
7446;SDS011;3765;47.962;7.952;2022-11-14T05:22:46;12.97;;;5.90;;
7446;SDS011;3765;47.962;7.952;2022-11-14T05:25:14;13.47;;;5.57;;
7446;SDS011;3765;47.962;7.952;2022-11-14T05:27:42;10.67;;;5.10;;
7446;SDS011;3765;47.962;7.952;2022-11-14T05:30:12;17.80;;;11.27;;
7446;SDS011;3765;47.962;7.952;2022-11-14T05:32:41;11.53;;;6.30;;
7446;SDS011;3765;47.962;7.952;2022-11-14T05:35:09;13.70;;;4.93;;
7446;SDS011;3765;47.962;7.952;2022-11-14T05:37:38;12.77;;;6.30;;
7446;SDS011;3765;47.962;7.952;2022-11-14T05:40:06;13.63;;;6.60;;
7446;SDS011;3765;47.962;7.952;2022-11-14T05:42:35;11.50;;;3.93;;
7446;SDS011;3765;47.962;7.952;2022-11-14T05:45:04;12.20;;;5.87;;
7446;SDS011;3765;47.962;7.952;2022-11-14T05:47:34;10.53;;;4.53;;
7446;SDS011;3765;47.962;7.952;2022-11-14T05:50:02;9.57;;;4.87;;
7446;SDS011;3765;47.962;7.952;2022-11-14T05:52:31;16.30;;;5.00;;
7446;SDS011;3765;47.962;7.952;2022-11-14T05:54:59;9.73;;;4.80;;
7446;SDS011;3765;47.962;7.952;2022-11-14T05:57:29;11.83;;;4.70;;
7446;SDS011;3765;47.962;7.952;2022-11-14T05:59:57;11.20;;;5.30;;
7446;SDS011;3765;47.962;7.952;2022-11-14T06:02:25;13.37;;;8.20;;
7446;SDS011;3765;47.962;7.952;2022-11-14T06:04:55;15.97;;;7.77;;
7446;SDS011;3765;47.962;7.952;2022-11-14T06:07:23;20.57;;;9.90;;
7446;SDS011;3765;47.962;7.952;2022-11-14T06:09:51;15.67;;;8.40;;
7446;SDS011;3765;47.962;7.952;2022-11-14T06:12:19;20.70;;;10.10;;
7446;SDS011;3765;47.962;7.952;2022-11-14T06:14:47;47.97;;;36.50;;
7446;SDS011;3765;47.962;7.952;2022-11-14T06:17:15;134.70;;;97.07;;
7446;SDS011;3765;47.962;7.952;2022-11-14T06:19:44;135.53;;;91.73;;
7446;SDS011;3765;47.962;7.952;2022-11-14T06:22:13;34.07;;;22.37;;
7446;SDS011;3765;47.962;7.952;2022-11-14T06:24:41;17.53;;;9.77;;
7446;SDS011;3765;47.962;7.952;2022-11-14T06:27:10;24.33;;;16.00;;
7446;SDS011;3765;47.962;7.952;2022-11-14T06:29:38;15.70;;;7.90;;
7446;SDS011;3765;47.962;7.952;2022-11-14T06:32:06;13.47;;;5.93;;
7446;SDS011;3765;47.962;7.952;2022-11-14T06:34:34;17.10;;;6.60;;
7446;SDS011;3765;47.962;7.952;2022-11-14T06:37:03;11.40;;;5.50;;
7446;SDS011;3765;47.962;7.952;2022-11-14T06:39:32;14.23;;;4.70;;
7446;SDS011;3765;47.962;7.952;2022-11-14T06:42:01;10.20;;;4.90;;
7446;SDS011;3765;47.962;7.952;2022-11-14T06:44:29;13.73;;;4.90;;
7446;SDS011;3765;47.962;7.952;2022-11-14T06:46:57;12.90;;;5.80;;
7446;SDS011;3765;47.962;7.952;2022-11-14T06:49:27;11.00;;;4.17;;
7446;SDS011;3765;47.962;7.952;2022-11-14T06:52:03;11.80;;;5.50;;
7446;SDS011;3765;47.962;7.952;2022-11-14T06:54:33;13.40;;;6.80;;
7446;SDS011;3765;47.962;7.952;2022-11-14T06:57:01;15.07;;;8.10;;
7446;SDS011;3765;47.962;7.952;2022-11-14T06:59:29;33.63;;;14.90;;
7446;SDS011;3765;47.962;7.952;2022-11-14T07:01:57;19.00;;;6.20;;
7446;SDS011;3765;47.962;7.952;2022-11-14T07:04:26;36.33;;;6.40;;
7446;SDS011;3765;47.962;7.952;2022-11-14T07:06:54;18.03;;;4.90;;
7446;SDS011;3765;47.962;7.952;2022-11-14T07:09:22;13.67;;;5.67;;
7446;SDS011;3765;47.962;7.952;2022-11-14T07:11:52;16.07;;;8.00;;
7446;SDS011;3765;47.962;7.952;2022-11-14T07:14:20;13.53;;;6.20;;
7446;SDS011;3765;47.962;7.952;2022-11-14T07:16:48;15.40;;;7.97;;
7446;SDS011;3765;47.962;7.952;2022-11-14T07:29:50;19.33;;;6.87;;
7446;SDS011;3765;47.962;7.952;2022-11-14T07:32:18;19.50;;;8.00;;
7446;SDS011;3765;47.962;7.952;2022-11-14T07:34:46;19.33;;;7.37;;
7446;SDS011;3765;47.962;7.952;2022-11-14T07:37:15;15.13;;;7.00;;
7446;SDS011;3765;47.962;7.952;2022-11-14T07:39:43;20.73;;;6.20;;
7446;SDS011;3765;47.962;7.952;2022-11-14T07:42:12;14.30;;;7.00;;
7446;SDS011;3765;47.962;7.952;2022-11-14T07:44:40;22.37;;;7.67;;
7446;SDS011;3765;47.962;7.952;2022-11-14T07:47:10;17.20;;;7.57;;
7446;SDS011;3765;47.962;7.952;2022-11-14T07:49:38;14.87;;;6.73;;
7446;SDS011;3765;47.962;7.952;2022-11-14T07:52:06;13.63;;;6.50;;
7446;SDS011;3765;47.962;7.952;2022-11-14T07:54:34;14.13;;;7.00;;
7446;SDS011;3765;47.962;7.952;2022-11-14T07:57:03;19.03;;;8.60;;
7446;SDS011;3765;47.962;7.952;2022-11-14T07:59:31;14.40;;;6.97;;
7446;SDS011;3765;47.962;7.952;2022-11-14T08:02:00;17.77;;;6.53;;
7446;SDS011;3765;47.962;7.952;2022-11-14T08:04:29;12.43;;;5.97;;
7446;SDS011;3765;47.962;7.952;2022-11-14T08:06:57;13.47;;;6.60;;
7446;SDS011;3765;47.962;7.952;2022-11-14T08:09:28;15.10;;;6.33;;
7446;SDS011;3765;47.962;7.952;2022-11-14T08:11:57;14.20;;;6.87;;
7446;SDS011;3765;47.962;7.952;2022-11-14T08:14:25;16.63;;;8.77;;
7446;SDS011;3765;47.962;7.952;2022-11-14T08:16:53;12.70;;;6.67;;
7446;SDS011;3765;47.962;7.952;2022-11-14T08:19:21;19.73;;;7.77;;
7446;SDS011;3765;47.962;7.952;2022-11-14T08:21:51;13.53;;;6.80;;
7446;SDS011;3765;47.962;7.952;2022-11-14T08:24:19;12.67;;;6.43;;
7446;SDS011;3765;47.962;7.952;2022-11-14T08:26:47;12.80;;;5.90;;
7446;SDS011;3765;47.962;7.952;2022-11-14T08:29:15;14.77;;;6.70;;
7446;SDS011;3765;47.962;7.952;2022-11-14T08:31:44;19.60;;;11.10;;
7446;SDS011;3765;47.962;7.952;2022-11-14T08:34:12;77.40;;;45.53;;
7446;SDS011;3765;47.962;7.952;2022-11-14T08:36:40;113.27;;;65.10;;
7446;SDS011;3765;47.962;7.952;2022-11-14T08:39:10;12.30;;;6.70;;
7446;SDS011;3765;47.962;7.952;2022-11-14T08:41:38;34.60;;;17.80;;
7446;SDS011;3765;47.962;7.952;2022-11-14T08:44:07;19.50;;;11.13;;
7446;SDS011;3765;47.962;7.952;2022-11-14T08:46:35;13.40;;;6.37;;
7446;SDS011;3765;47.962;7.952;2022-11-14T08:49:03;32.00;;;16.87;;
7446;SDS011;3765;47.962;7.952;2022-11-14T08:51:32;20.80;;;7.87;;
7446;SDS011;3765;47.962;7.952;2022-11-14T08:54:01;11.40;;;6.33;;
7446;SDS011;3765;47.962;7.952;2022-11-14T08:56:31;20.27;;;12.03;;
7446;SDS011;3765;47.962;7.952;2022-11-14T08:59:01;13.23;;;6.60;;
7446;SDS011;3765;47.962;7.952;2022-11-14T09:01:30;17.33;;;10.03;;
7446;SDS011;3765;47.962;7.952;2022-11-14T09:03:58;19.03;;;8.53;;
7446;SDS011;3765;47.962;7.952;2022-11-14T09:06:27;11.13;;;5.50;;
7446;SDS011;3765;47.962;7.952;2022-11-14T09:08:55;32.27;;;17.77;;
7446;SDS011;3765;47.962;7.952;2022-11-14T09:11:24;22.10;;;11.27;;
7446;SDS011;3765;47.962;7.952;2022-11-14T09:13:54;21.07;;;10.67;;
7446;SDS011;3765;47.962;7.952;2022-11-14T09:16:22;15.90;;;10.20;;
7446;SDS011;3765;47.962;7.952;2022-11-14T09:18:50;38.33;;;23.03;;
7446;SDS011;3765;47.962;7.952;2022-11-14T09:21:18;19.17;;;10.23;;
7446;SDS011;3765;47.962;7.952;2022-11-14T09:23:47;17.70;;;8.93;;
7446;SDS011;3765;47.962;7.952;2022-11-14T09:26:15;17.27;;;9.20;;
7446;SDS011;3765;47.962;7.952;2022-11-14T09:28:44;12.87;;;5.33;;
7446;SDS011;3765;47.962;7.952;2022-11-14T09:31:14;11.93;;;4.57;;
7446;SDS011;3765;47.962;7.952;2022-11-14T09:33:42;13.20;;;6.90;;
7446;SDS011;3765;47.962;7.952;2022-11-14T09:36:10;12.10;;;4.33;;
7446;SDS011;3765;47.962;7.952;2022-11-14T09:38:41;10.43;;;5.40;;
7446;SDS011;3765;47.962;7.952;2022-11-14T09:41:21;13.97;;;6.63;;
7446;SDS011;3765;47.962;7.952;2022-11-14T09:44:00;12.87;;;6.40;;
7446;SDS011;3765;47.962;7.952;2022-11-14T09:46:55;28.17;;;15.20;;
7446;SDS011;3765;47.962;7.952;2022-11-14T09:49:25;48.53;;;28.63;;
7446;SDS011;3765;47.962;7.952;2022-11-14T09:52:00;25.17;;;14.33;;
7446;SDS011;3765;47.962;7.952;2022-11-14T09:54:38;12.07;;;4.70;;
7446;SDS011;3765;47.962;7.952;2022-11-14T09:57:13;14.90;;;7.47;;
7446;SDS011;3765;47.962;7.952;2022-11-14T09:59:43;16.33;;;7.70;;
7446;SDS011;3765;47.962;7.952;2022-11-14T10:02:15;22.57;;;13.03;;
7446;SDS011;3765;47.962;7.952;2022-11-14T10:05:00;26.53;;;15.20;;
7446;SDS011;3765;47.962;7.952;2022-11-14T10:07:41;11.03;;;4.30;;
7446;SDS011;3765;47.962;7.952;2022-11-14T10:10:25;14.43;;;8.33;;
7446;SDS011;3765;47.962;7.952;2022-11-14T10:13:07;10.20;;;5.40;;
7446;SDS011;3765;47.962;7.952;2022-11-14T10:15:45;29.90;;;18.50;;
7446;SDS011;3765;47.962;7.952;2022-11-14T10:18:25;8.03;;;3.30;;
7446;SDS011;3765;47.962;7.952;2022-11-14T10:21:05;10.13;;;3.40;;
7446;SDS011;3765;47.962;7.952;2022-11-14T10:23:46;9.10;;;3.43;;
7446;SDS011;3765;47.962;7.952;2022-11-14T10:26:24;8.90;;;3.60;;
7446;SDS011;3765;47.962;7.952;2022-11-14T10:29:03;7.40;;;3.10;;
7446;SDS011;3765;47.962;7.952;2022-11-14T10:31:47;10.33;;;5.10;;
7446;SDS011;3765;47.962;7.952;2022-11-14T10:34:23;9.50;;;3.90;;
7446;SDS011;3765;47.962;7.952;2022-11-14T10:36:59;10.23;;;4.97;;
7446;SDS011;3765;47.962;7.952;2022-11-14T10:39:34;9.13;;;3.10;;
7446;SDS011;3765;47.962;7.952;2022-11-14T10:42:08;8.87;;;3.37;;
7446;SDS011;3765;47.962;7.952;2022-11-14T10:44:41;7.87;;;3.47;;
7446;SDS011;3765;47.962;7.952;2022-11-14T10:47:16;8.20;;;3.70;;
7446;SDS011;3765;47.962;7.952;2022-11-14T10:49:49;7.70;;;3.30;;
7446;SDS011;3765;47.962;7.952;2022-11-14T10:52:21;9.87;;;3.20;;
7446;SDS011;3765;47.962;7.952;2022-11-14T10:54:59;10.43;;;3.63;;
7446;SDS011;3765;47.962;7.952;2022-11-14T10:57:33;8.40;;;3.10;;
7446;SDS011;3765;47.962;7.952;2022-11-14T11:00:04;7.97;;;3.30;;
7446;SDS011;3765;47.962;7.952;2022-11-14T11:02:47;10.10;;;3.60;;
7446;SDS011;3765;47.962;7.952;2022-11-14T11:05:20;12.37;;;3.40;;
7446;SDS011;3765;47.962;7.952;2022-11-14T11:07:50;8.30;;;3.37;;
7446;SDS011;3765;47.962;7.952;2022-11-14T11:10:57;10.60;;;3.00;;
7446;SDS011;3765;47.962;7.952;2022-11-14T11:13:47;8.13;;;3.10;;
7446;SDS011;3765;47.962;7.952;2022-11-14T11:16:20;9.70;;;3.47;;
7446;SDS011;3765;47.962;7.952;2022-11-14T11:18:49;10.63;;;3.60;;
7446;SDS011;3765;47.962;7.952;2022-11-14T11:21:19;8.73;;;3.43;;
7446;SDS011;3765;47.962;7.952;2022-11-14T11:23:49;17.97;;;3.50;;
7446;SDS011;3765;47.962;7.952;2022-11-14T11:26:20;7.80;;;2.73;;
7446;SDS011;3765;47.962;7.952;2022-11-14T11:29:03;9.03;;;3.07;;
7446;SDS011;3765;47.962;7.952;2022-11-14T11:34:26;15.20;;;3.10;;
7446;SDS011;3765;47.962;7.952;2022-11-14T11:36:59;8.70;;;3.40;;
7446;SDS011;3765;47.962;7.952;2022-11-14T11:39:32;8.10;;;3.23;;
7446;SDS011;3765;47.962;7.952;2022-11-14T11:42:05;10.50;;;3.17;;
7446;SDS011;3765;47.962;7.952;2022-11-14T11:44:37;8.70;;;3.90;;
7446;SDS011;3765;47.962;7.952;2022-11-14T11:47:10;17.60;;;8.27;;
7446;SDS011;3765;47.962;7.952;2022-11-14T11:49:43;12.90;;;3.60;;
7446;SDS011;3765;47.962;7.952;2022-11-14T11:52:25;11.80;;;4.90;;
7446;SDS011;3765;47.962;7.952;2022-11-14T11:54:59;9.97;;;4.30;;
7446;SDS011;3765;47.962;7.952;2022-11-14T11:57:32;10.10;;;5.20;;
7446;SDS011;3765;47.962;7.952;2022-11-14T12:00:06;10.70;;;4.40;;
7446;SDS011;3765;47.962;7.952;2022-11-14T12:02:41;15.00;;;7.90;;
7446;SDS011;3765;47.962;7.952;2022-11-14T12:05:16;15.17;;;6.27;;
7446;SDS011;3765;47.962;7.952;2022-11-14T12:07:56;11.43;;;4.70;;
7446;SDS011;3765;47.962;7.952;2022-11-14T12:10:30;14.10;;;4.40;;
7446;SDS011;3765;47.962;7.952;2022-11-14T12:16:21;7.60;;;3.20;;
7446;SDS011;3765;47.962;7.952;2022-11-14T12:22:05;10.40;;;5.10;;
7446;SDS011;3765;47.962;7.952;2022-11-14T12:24:51;9.80;;;3.93;;
7446;SDS011;3765;47.962;7.952;2022-11-14T12:27:46;13.63;;;7.60;;
7446;SDS011;3765;47.962;7.952;2022-11-14T12:30:29;9.13;;;3.90;;
7446;SDS011;3765;47.962;7.952;2022-11-14T12:32:59;11.67;;;4.60;;
7446;SDS011;3765;47.962;7.952;2022-11-14T12:35:31;14.47;;;6.80;;
7446;SDS011;3765;47.962;7.952;2022-11-14T12:38:01;13.73;;;7.90;;
7446;SDS011;3765;47.962;7.952;2022-11-14T12:40:33;25.17;;;18.40;;
7446;SDS011;3765;47.962;7.952;2022-11-14T12:43:05;10.07;;;4.03;;
7446;SDS011;3765;47.962;7.952;2022-11-14T12:46:02;18.37;;;10.40;;
7446;SDS011;3765;47.962;7.952;2022-11-14T12:48:35;14.63;;;4.83;;
7446;SDS011;3765;47.962;7.952;2022-11-14T12:51:05;11.13;;;5.70;;
7446;SDS011;3765;47.962;7.952;2022-11-14T12:53:49;14.53;;;4.90;;
7446;SDS011;3765;47.962;7.952;2022-11-14T12:59:33;17.80;;;7.33;;
7446;SDS011;3765;47.962;7.952;2022-11-14T13:05:21;26.27;;;9.07;;
7446;SDS011;3765;47.962;7.952;2022-11-14T13:08:00;90.47;;;30.70;;
7446;SDS011;3765;47.962;7.952;2022-11-14T13:10:41;10.57;;;4.47;;
7446;SDS011;3765;47.962;7.952;2022-11-14T13:13:11;25.10;;;7.63;;
7446;SDS011;3765;47.962;7.952;2022-11-14T13:15:59;91.17;;;25.23;;
7446;SDS011;3765;47.962;7.952;2022-11-14T13:18:49;28.90;;;9.10;;
7446;SDS011;3765;47.962;7.952;2022-11-14T13:22:15;30.13;;;8.43;;
7446;SDS011;3765;47.962;7.952;2022-11-14T13:27:46;14.90;;;5.37;;
7446;SDS011;3765;47.962;7.952;2022-11-14T13:33:45;22.90;;;11.17;;
7446;SDS011;3765;47.962;7.952;2022-11-14T13:36:17;23.87;;;13.20;;
7446;SDS011;3765;47.962;7.952;2022-11-14T13:39:15;22.00;;;13.43;;
7446;SDS011;3765;47.962;7.952;2022-11-14T13:47:57;14.40;;;3.33;;
7446;SDS011;3765;47.962;7.952;2022-11-14T13:50:48;11.33;;;4.77;;
7446;SDS011;3765;47.962;7.952;2022-11-14T13:53:19;12.10;;;4.00;;
7446;SDS011;3765;47.962;7.952;2022-11-14T13:55:53;17.53;;;7.43;;
7446;SDS011;3765;47.962;7.952;2022-11-14T13:58:39;15.00;;;7.30;;
7446;SDS011;3765;47.962;7.952;2022-11-14T14:01:37;11.50;;;3.90;;
7446;SDS011;3765;47.962;7.952;2022-11-14T14:04:19;19.67;;;8.63;;
7446;SDS011;3765;47.962;7.952;2022-11-14T14:07:00;12.20;;;4.00;;
7446;SDS011;3765;47.962;7.952;2022-11-14T14:09:39;13.83;;;6.27;;
7446;SDS011;3765;47.962;7.952;2022-11-14T14:12:19;12.37;;;3.73;;
7446;SDS011;3765;47.962;7.952;2022-11-14T14:15:02;13.40;;;4.07;;
7446;SDS011;3765;47.962;7.952;2022-11-14T14:17:41;10.13;;;3.70;;
7446;SDS011;3765;47.962;7.952;2022-11-14T14:20:20;11.27;;;4.60;;
7446;SDS011;3765;47.962;7.952;2022-11-14T14:22:59;11.20;;;4.40;;
7446;SDS011;3765;47.962;7.952;2022-11-14T14:25:37;14.03;;;5.97;;
7446;SDS011;3765;47.962;7.952;2022-11-14T14:28:16;12.13;;;4.50;;
7446;SDS011;3765;47.962;7.952;2022-11-14T14:31:01;13.00;;;5.63;;
7446;SDS011;3765;47.962;7.952;2022-11-14T14:33:39;10.27;;;3.90;;
7446;SDS011;3765;47.962;7.952;2022-11-14T14:36:20;11.23;;;4.50;;
7446;SDS011;3765;47.962;7.952;2022-11-14T14:39:05;10.60;;;5.23;;
7446;SDS011;3765;47.962;7.952;2022-11-14T14:41:41;14.43;;;6.40;;
7446;SDS011;3765;47.962;7.952;2022-11-14T14:44:16;10.20;;;4.80;;
7446;SDS011;3765;47.962;7.952;2022-11-14T14:46:48;15.60;;;6.27;;
7446;SDS011;3765;47.962;7.952;2022-11-14T14:49:17;13.23;;;5.60;;
7446;SDS011;3765;47.962;7.952;2022-11-14T14:51:49;9.20;;;4.10;;
7446;SDS011;3765;47.962;7.952;2022-11-14T14:54:24;12.57;;;5.83;;
7446;SDS011;3765;47.962;7.952;2022-11-14T14:56:55;16.10;;;3.50;;
7446;SDS011;3765;47.962;7.952;2022-11-14T14:59:26;10.83;;;3.50;;
7446;SDS011;3765;47.962;7.952;2022-11-14T15:01:55;13.60;;;5.77;;
7446;SDS011;3765;47.962;7.952;2022-11-14T15:04:25;10.00;;;4.10;;
7446;SDS011;3765;47.962;7.952;2022-11-14T15:06:56;9.37;;;4.83;;
7446;SDS011;3765;47.962;7.952;2022-11-14T15:09:24;10.90;;;3.80;;
7446;SDS011;3765;47.962;7.952;2022-11-14T15:11:56;12.00;;;4.40;;
7446;SDS011;3765;47.962;7.952;2022-11-14T15:14:27;11.13;;;3.93;;
7446;SDS011;3765;47.962;7.952;2022-11-14T15:16:57;10.03;;;3.43;;
7446;SDS011;3765;47.962;7.952;2022-11-14T15:19:27;10.00;;;3.83;;
7446;SDS011;3765;47.962;7.952;2022-11-14T15:22:18;14.83;;;6.50;;
7446;SDS011;3765;47.962;7.952;2022-11-14T15:27:46;9.50;;;3.90;;
7446;SDS011;3765;47.962;7.952;2022-11-14T15:30:20;8.37;;;3.40;;
7446;SDS011;3765;47.962;7.952;2022-11-14T15:32:51;11.63;;;5.90;;
7446;SDS011;3765;47.962;7.952;2022-11-14T15:35:25;11.17;;;4.60;;
7446;SDS011;3765;47.962;7.952;2022-11-14T15:38:02;15.97;;;6.03;;
7446;SDS011;3765;47.962;7.952;2022-11-14T15:41:08;13.67;;;7.20;;
7446;SDS011;3765;47.962;7.952;2022-11-14T15:43:46;10.60;;;5.60;;
7446;SDS011;3765;47.962;7.952;2022-11-14T15:46:26;15.67;;;6.77;;
7446;SDS011;3765;47.962;7.952;2022-11-14T15:49:18;11.20;;;4.90;;
7446;SDS011;3765;47.962;7.952;2022-11-14T15:51:49;12.73;;;5.20;;
7446;SDS011;3765;47.962;7.952;2022-11-14T15:54:25;17.83;;;6.00;;
7446;SDS011;3765;47.962;7.952;2022-11-14T15:56:59;17.57;;;6.60;;
7446;SDS011;3765;47.962;7.952;2022-11-14T15:59:33;14.50;;;6.00;;
7446;SDS011;3765;47.962;7.952;2022-11-14T16:02:02;10.90;;;5.03;;
7446;SDS011;3765;47.962;7.952;2022-11-14T16:04:37;18.07;;;9.13;;
7446;SDS011;3765;47.962;7.952;2022-11-14T16:07:13;9.50;;;3.67;;
7446;SDS011;3765;47.962;7.952;2022-11-14T16:09:44;11.10;;;5.17;;
7446;SDS011;3765;47.962;7.952;2022-11-14T16:12:12;15.60;;;8.30;;
7446;SDS011;3765;47.962;7.952;2022-11-14T16:14:40;45.23;;;27.67;;